Time;durP1;ratioP1;P1;durP2;ratioP2;P2;SDS_P1;SDS_P2;PMS_P1;PMS_P2;Temp;Humidity;BMP_temperature;BMP_pressure;BME280_temperature;BME280_humidity;BME280_pressure;Samples;Min_cycle;Max_cycle;Signal;HPM_P1;HPM_P2
2023/01/30 00:00:09;;;;;;;;;23.00;23.00;;;;;3.79;51.95;100026.75;5052540;28;8860;-78
2023/01/30 00:02:57;;;;;;;;;26.20;22.80;;;;;3.59;53.12;100026.06;5072550;28;8856;-77
2023/01/30 00:05:27;;;;;;;;;27.25;20.25;;;;;3.39;53.81;100035.66;5093789;28;9034;-78
2023/01/30 00:07:55;;;;;;;;;23.20;19.80;;;;;2.91;54.79;100039.06;5111882;28;8868;-79
2023/01/30 00:10:24;;;;;;;;;23.20;19.80;;;;;3.30;53.96;100032.75;5093386;28;8832;-78
2023/01/30 00:12:53;;;;;;;;;29.20;24.00;;;;;3.70;53.51;100041.91;5146085;27;8862;-78
2023/01/30 00:15:23;;;;;;;;;20.75;20.00;;;;;3.92;52.25;100040.09;5088210;28;8846;-78
2023/01/30 00:17:52;;;;;;;;;28.50;23.50;;;;;3.84;54.15;100042.41;5068806;28;8923;-78
2023/01/30 00:20:21;;;;;;;;;28.20;21.60;;;;;4.17;52.30;100023.72;5051352;28;8855;-78
2023/01/30 00:22:50;;;;;;;;;25.25;24.25;;;;;3.56;52.33;100031.13;5035203;28;8868;-77
2023/01/30 00:25:30;;;;;;;;;22.20;21.80;;;;;3.53;52.77;100038.72;5068214;28;8863;-78
2023/01/30 00:28:00;;;;;;;;;24.60;20.20;;;;;3.45;53.10;100040.16;5067831;28;9695;-78
2023/01/30 00:30:31;;;;;;;;;24.00;24.00;;;;;3.52;52.81;100047.31;5067972;28;8820;-78
2023/01/30 00:33:00;;;;;;;;;19.25;19.00;;;;;3.54;52.73;100048.22;5050203;28;8872;-77
2023/01/30 00:35:29;;;;;;;;;25.75;22.75;;;;;2.76;54.03;100047.88;5071597;28;8842;-78
2023/01/30 00:37:59;;;;;;;;;31.00;27.00;;;;;3.07;53.24;100053.38;5071859;28;8878;-79
2023/01/30 00:40:29;;;;;;;;;10.40;9.80;;;;;3.11;53.73;100051.81;5071345;28;8853;-78
2023/01/30 00:48:33;;;;;;;;;28.20;23.60;;;;;3.36;53.28;100032.97;5107009;28;9707;-80
2023/01/30 00:51:02;;;;;;;;;25.00;19.80;;;;;3.95;53.06;100025.59;5091214;28;8844;-79
2023/01/30 00:53:31;;;;;;;;;25.20;21.40;;;;;3.89;51.69;100028.84;5090555;28;8852;-78
2023/01/30 00:56:00;;;;;;;;;27.00;21.50;;;;;3.35;53.47;100035.50;5087820;28;9702;-77
2023/01/30 00:58:28;;;;;;;;;28.25;21.75;;;;;3.67;52.69;100034.09;5054207;28;8911;-77
2023/01/30 01:00:59;;;;;;;;;21.00;19.25;;;;;3.11;52.42;100036.34;5065804;28;8852;-79
2023/01/30 01:03:27;;;;;;;;;22.40;21.80;;;;;2.88;52.82;100023.47;5033229;28;8859;-78
2023/01/30 01:05:56;;;;;;;;;23.40;23.40;;;;;2.76;53.53;100029.84;5048412;28;9641;-77
2023/01/30 01:08:25;;;;;;;;;25.80;21.60;;;;;2.96;53.82;100036.66;5009804;28;9009;-79
2023/01/30 01:10:53;;;;;;;;;26.25;23.00;;;;;3.13;53.40;100022.69;5025030;28;8855;-76
2023/01/30 01:13:22;;;;;;;;;23.00;21.75;;;;;2.81;53.58;100024.06;5026478;28;8876;-76
2023/01/30 01:15:51;;;;;;;;;29.60;25.00;;;;;2.90;53.89;100024.41;4994129;28;9653;-76
2023/01/30 01:18:21;;;;;;;;;23.50;20.50;;;;;3.06;52.63;100020.72;5026722;28;8852;-79
2023/01/30 01:20:50;;;;;;;;;17.75;15.00;;;;;3.44;53.54;100010.03;5021919;28;8906;-77
2023/01/30 01:23:18;;;;;;;;;27.25;25.50;;;;;2.99;52.65;100005.88;5046627;28;8971;-77
2023/01/30 01:25:51;;;;;;;;;31.50;26.75;;;;;3.04;53.17;100016.31;5046887;28;8903;-78
2023/01/30 01:28:21;;;;;;;;;19.00;18.00;;;;;3.00;53.48;100014.47;5016541;28;9126;-78
2023/01/30 01:30:50;;;;;;;;;26.60;24.60;;;;;3.20;52.27;100010.06;5052997;28;8833;-76
2023/01/30 01:33:18;;;;;;;;;24.75;21.75;;;;;3.08;52.47;100007.88;5086494;28;8919;-79
2023/01/30 01:35:49;;;;;;;;;27.20;21.60;;;;;3.18;52.35;99997.09;5053126;28;8845;-77
2023/01/30 01:38:17;;;;;;;;;27.00;20.50;;;;;3.30;52.34;100001.81;5053187;28;8895;-79
2023/01/30 01:41:00;;;;;;;;;33.00;23.20;;;;;3.23;53.12;99997.25;5085260;28;8975;-76
2023/01/30 01:43:32;;;;;;;;;20.00;18.20;;;;;2.90;52.77;99995.22;5072831;28;8862;-78
2023/01/30 01:46:08;;;;;;;;;25.75;21.50;;;;;2.97;52.30;99989.47;5086750;28;8931;-77
2023/01/30 01:48:42;;;;;;;;;29.50;24.00;;;;;2.82;53.17;99992.34;5085277;28;8888;-78
2023/01/30 01:51:19;;;;;;;;;20.80;20.80;;;;;2.87;53.00;99977.97;5068490;28;8864;-76
2023/01/30 01:53:55;;;;;;;;;32.00;25.00;;;;;2.88;53.94;99976.25;5069065;28;8847;-79
2023/01/30 01:56:24;;;;;;;;;35.75;28.00;;;;;2.85;54.42;99973.53;5069434;28;9604;-77
2023/01/30 01:58:58;;;;;;;;;20.50;20.00;;;;;3.04;53.94;99978.53;5069320;28;8832;-79
2023/01/30 02:01:29;;;;;;;;;25.50;25.50;;;;;2.96;53.78;99974.81;5066911;28;8879;-77
2023/01/30 02:04:03;;;;;;;;;34.00;27.50;;;;;3.15;54.12;99966.06;5089299;28;8829;-78
2023/01/30 02:06:34;;;;;;;;;32.00;30.25;;;;;3.19;53.53;99969.63;5072895;28;8825;-77
2023/01/30 02:09:06;;;;;;;;;37.50;32.25;;;;;3.10;53.56;99963.34;5072809;28;8969;-77
2023/01/30 02:11:42;;;;;;;;;25.00;23.00;;;;;2.97;54.15;99961.13;5072587;28;8839;-78
2023/01/30 02:14:13;;;;;;;;;25.00;25.00;;;;;2.88;54.83;99960.78;5085581;28;8876;-77
2023/01/30 02:16:44;;;;;;;;;34.00;32.25;;;;;3.01;54.81;99967.28;5067619;28;8850;-78
2023/01/30 02:19:24;;;;;;;;;17.00;17.00;;;;;3.13;55.12;99960.84;5028938;28;8854;-77
2023/01/30 02:22:30;;;;;;;;;21.40;21.40;;;;;3.32;54.52;99949.50;5028283;28;8854;-79
2023/01/30 02:25:23;;;;;;;;;31.75;25.75;;;;;3.36;54.25;99947.91;5045668;28;8963;-77
2023/01/30 02:28:30;;;;;;;;;26.25;25.00;;;;;3.06;54.54;99950.28;5028734;28;8854;-77
2023/01/30 02:31:14;;;;;;;;;28.25;25.00;;;;;3.22;54.33;99951.72;5063461;28;8958;-78
2023/01/30 02:33:55;;;;;;;;;29.50;28.50;;;;;2.89;55.49;99939.34;5051513;28;9754;-79
2023/01/30 02:36:34;;;;;;;;;29.50;26.00;;;;;2.86;55.97;99936.69;5040315;28;8864;-78
2023/01/30 02:39:10;;;;;;;;;31.50;28.00;;;;;3.20;56.09;99936.19;5048562;28;8871;-76
2023/01/30 02:41:53;;;;;;;;;28.00;25.50;;;;;3.82;55.39;99930.53;5048804;28;8988;-77
2023/01/30 02:44:27;;;;;;;;;30.25;27.50;;;;;4.32;53.76;99922.66;5051421;28;8848;-75
2023/01/30 02:47:02;;;;;;;;;33.75;30.25;;;;;4.12;54.27;99922.03;5105824;28;8873;-77
2023/01/30 02:49:38;;;;;;;;;30.25;27.75;;;;;4.05;53.85;99916.69;5105288;27;8872;-78
2023/01/30 02:52:10;;;;;;;;;31.00;28.50;;;;;4.33;53.00;99914.06;5075598;27;8934;-76
2023/01/30 02:54:39;;;;;;;;;29.75;27.25;;;;;4.42;53.94;99909.19;5120088;27;8825;-76
2023/01/30 02:57:19;;;;;;;;;35.75;33.50;;;;;4.62;52.87;99909.78;5106760;28;8833;-78
2023/01/30 02:59:55;;;;;;;;;33.75;28.00;;;;;4.20;54.21;99915.41;5089806;28;8857;-76
2023/01/30 03:02:38;;;;;;;;;31.00;27.00;;;;;4.77;52.82;99901.59;5106936;28;8878;-76
2023/01/30 03:05:39;;;;;;;;;28.50;24.75;;;;;5.07;52.44;99901.59;5115216;27;8931;-78
2023/01/30 03:08:20;;;;;;;;;34.00;30.50;;;;;4.52;53.04;99900.00;5108753;27;8850;-78
2023/01/30 03:10:58;;;;;;;;;29.00;23.00;;;;;4.12;54.72;99903.97;5127125;27;8858;-75
2023/01/30 03:13:40;;;;;;;;;31.00;25.25;;;;;4.36;54.03;99902.13;5102253;28;8868;-77
2023/01/30 03:16:14;;;;;;;;;29.75;27.00;;;;;4.86;53.54;99904.47;5123798;28;8905;-76
2023/01/30 03:18:47;;;;;;;;;39.50;33.00;;;;;4.57;52.84;99901.88;5106526;28;8849;-77
2023/01/30 03:21:19;;;;;;;;;35.75;33.25;;;;;4.63;53.43;99901.19;5105995;27;8848;-77
2023/01/30 03:23:47;;;;;;;;;32.75;28.25;;;;;4.56;53.82;99899.28;5105876;28;8872;-77
2023/01/30 03:26:20;;;;;;;;;34.50;32.00;;;;;4.77;53.45;99907.63;5106568;28;9649;-76
2023/01/30 03:28:51;;;;;;;;;29.00;28.25;;;;;4.81;53.15;99903.44;5089697;28;8860;-77
2023/01/30 03:31:21;;;;;;;;;39.00;30.33;;;;;5.17;52.26;99890.66;5105782;27;8842;-77
2023/01/30 03:33:51;;;;;;;;;33.00;31.25;;;;;4.33;54.42;99894.31;5130610;27;8846;-76
2023/01/30 03:36:20;;;;;;;;;29.40;25.00;;;;;4.37;55.11;99888.41;5131496;27;9008;-77
2023/01/30 03:38:48;;;;;;;;;32.75;29.50;;;;;4.34;55.30;99884.84;5127608;27;8950;-76
2023/01/30 03:41:18;;;;;;;;;36.25;32.50;;;;;4.92;54.22;99885.66;5110572;28;8937;-77
2023/01/30 03:43:46;;;;;;;;;32.25;24.50;;;;;5.10;53.21;99877.50;5093538;28;9618;-77
2023/01/30 03:46:16;;;;;;;;;26.00;26.00;;;;;4.97;53.84;99876.31;5110346;28;8841;-76
2023/01/30 03:48:45;;;;;;;;;27.60;23.00;;;;;5.12;53.30;99878.44;5115730;27;8819;-76
2023/01/30 03:51:16;;;;;;;;;32.75;32.75;;;;;4.95;53.99;99871.09;5130909;27;8826;-76
2023/01/30 03:53:44;;;;;;;;;33.80;29.80;;;;;5.35;53.17;99858.34;5131228;27;8830;-76
2023/01/30 03:56:14;;;;;;;;;33.25;31.50;;;;;5.60;53.03;99863.31;5113867;27;9618;-75
2023/01/30 03:58:42;;;;;;;;;35.75;30.25;;;;;5.36;52.74;99866.16;5130987;27;8969;-76
2023/01/30 04:01:18;;;;;;;;;28.75;27.75;;;;;5.33;52.31;99857.44;5109795;28;8840;-77
2023/01/30 04:03:47;;;;;;;;;34.25;29.75;;;;;5.14;53.32;99863.84;5110217;28;8931;-76
2023/01/30 04:06:18;;;;;;;;;42.75;39.25;;;;;4.88;53.70;99857.13;5059055;28;8869;-77
2023/01/30 04:08:47;;;;;;;;;29.75;25.25;;;;;4.22;55.67;99864.72;5093259;28;8841;-77
2023/01/30 04:11:29;;;;;;;;;27.00;26.25;;;;;4.01;57.38;99863.22;5110230;28;8981;-76
2023/01/30 04:13:57;;;;;;;;;32.75;30.75;;;;;4.09;57.61;99868.63;5115780;27;8865;-76
2023/01/30 04:16:27;;;;;;;;;38.50;31.75;;;;;3.66;58.58;99865.56;5130774;27;9026;-76
2023/01/30 04:18:58;;;;;;;;;30.00;25.00;;;;;3.87;58.65;99859.34;5097364;27;8861;-77
2023/01/30 04:21:33;;;;;;;;;38.00;32.50;;;;;3.39;59.76;99862.97;5129156;27;8834;-77
2023/01/30 04:24:02;;;;;;;;;33.00;30.50;;;;;2.79;62.50;99866.03;5095532;27;8909;-76
2023/01/30 04:26:30;;;;;;;;;33.50;33.50;;;;;2.57;63.36;99872.13;5058498;28;8833;-77
2023/01/30 04:28:59;;;;;;;;;38.50;37.75;;;;;2.75;63.26;99876.19;5074850;28;8841;-76
2023/01/30 04:31:30;;;;;;;;;35.25;35.25;;;;;2.53;64.37;99871.13;5094556;28;8826;-76
2023/01/30 04:34:07;;;;;;;;;40.25;38.50;;;;;2.57;64.79;99871.22;5091777;28;9493;-77
2023/01/30 04:36:37;;;;;;;;;32.50;30.25;;;;;2.66;64.91;99863.84;5091272;28;9038;-76
2023/01/30 04:39:06;;;;;;;;;37.00;33.50;;;;;2.65;64.55;99860.41;5050848;28;8879;-78
2023/01/30 04:41:35;;;;;;;;;37.50;34.25;;;;;2.46;64.97;99858.00;5084069;28;8833;-79
2023/01/30 04:44:04;;;;;;;;;40.75;35.25;;;;;2.51;65.32;99851.28;5067423;28;8968;-78
2023/01/30 04:46:41;;;;;;;;;39.25;29.75;;;;;2.62;65.44;99859.41;5084668;28;8839;-79
2023/01/30 04:49:12;;;;;;;;;35.00;29.75;;;;;2.40;65.29;99863.78;5070386;28;8851;-77
2023/01/30 04:51:43;;;;;;;;;30.75;29.75;;;;;2.30;65.61;99859.97;5071281;28;8854;-78
2023/01/30 04:54:11;;;;;;;;;31.00;30.00;;;;;2.75;64.42;99851.31;5090182;28;9432;-79
2023/01/30 04:56:42;;;;;;;;;38.75;32.75;;;;;3.01;64.06;99846.22;5072880;28;8861;-76
2023/01/30 04:59:10;;;;;;;;;37.00;36.00;;;;;3.13;63.19;99844.91;5089896;28;8875;-76
2023/01/30 05:01:43;;;;;;;;;41.75;37.00;;;;;3.01;63.61;99848.78;5088122;28;9000;-77
2023/01/30 05:04:12;;;;;;;;;38.75;33.00;;;;;3.10;63.27;99844.81;5048745;28;8899;-77
2023/01/30 05:06:43;;;;;;;;;36.75;34.00;;;;;3.04;63.28;99846.28;5049500;28;8879;-76
2023/01/30 05:09:12;;;;;;;;;38.25;35.50;;;;;3.18;63.17;99844.22;5050060;28;9153;-76
2023/01/30 05:11:41;;;;;;;;;45.00;42.50;;;;;2.95;64.07;99849.44;5085995;28;8843;-79
2023/01/30 05:14:09;;;;;;;;;35.00;32.75;;;;;2.56;64.10;99849.78;5086515;28;8966;-75
2023/01/30 05:16:38;;;;;;;;;34.25;31.00;;;;;2.41;64.55;99849.22;5086699;28;8878;-75
2023/01/30 05:19:07;;;;;;;;;32.25;25.50;;;;;2.58;64.29;99847.25;5069940;28;8839;-78
2023/01/30 05:21:35;;;;;;;;;35.75;29.25;;;;;2.50;64.84;99844.41;5091134;28;8835;-78
2023/01/30 05:24:06;;;;;;;;;35.75;28.50;;;;;2.45;64.53;99843.34;5086755;28;8839;-78
2023/01/30 05:26:35;;;;;;;;;41.00;36.50;;;;;2.53;63.21;99844.50;5053194;28;8916;-78
2023/01/30 05:29:04;;;;;;;;;35.75;32.00;;;;;2.26;63.54;99846.94;5069310;28;8855;-78
2023/01/30 05:31:34;;;;;;;;;33.75;29.50;;;;;2.24;63.19;99851.16;5069665;28;8909;-78
2023/01/30 05:34:03;;;;;;;;;32.50;29.75;;;;;2.26;62.82;99855.53;5085880;28;8855;-76
2023/01/30 05:36:32;;;;;;;;;35.50;29.50;;;;;2.49;62.43;99853.81;5105582;27;8856;-79
2023/01/30 05:39:00;;;;;;;;;31.75;28.00;;;;;2.65;60.53;99854.38;5091222;28;8861;-78
2023/01/30 05:41:30;;;;;;;;;30.00;28.75;;;;;2.66;60.63;99846.69;5109467;28;8929;-79
2023/01/30 05:43:59;;;;;;;;;34.00;33.50;;;;;2.62;60.13;99852.56;5069224;28;8876;-78
2023/01/30 05:46:28;;;;;;;;;32.25;27.75;;;;;2.59;59.17;99844.75;5069224;28;8857;-80
2023/01/30 05:48:57;;;;;;;;;33.50;29.75;;;;;2.40;59.15;99855.16;5069277;28;8848;-77
2023/01/30 05:51:27;;;;;;;;;31.25;25.50;;;;;2.21;56.31;99841.63;5068986;28;8887;-76
2023/01/30 05:53:55;;;;;;;;;27.25;23.50;;;;;1.91;56.56;99847.34;5041018;28;8863;-77
2023/01/30 05:56:24;;;;;;;;;29.50;24.00;;;;;2.06;55.98;99851.31;5083021;28;8904;-77
2023/01/30 05:58:56;;;;;;;;;23.00;20.50;;;;;1.97;55.27;99853.53;5061545;28;9588;-78
2023/01/30 06:01:26;;;;;;;;;26.25;22.50;;;;;2.01;54.86;99860.56;5066999;28;8861;-77
2023/01/30 06:03:55;;;;;;;;;22.00;21.50;;;;;2.03;53.65;99851.22;5083711;28;8919;-79
2023/01/30 06:06:25;;;;;;;;;26.75;24.25;;;;;2.03;53.89;99848.66;5043717;28;8897;-76
2023/01/30 06:08:55;;;;;;;;;21.20;21.00;;;;;2.14;53.43;99848.22;5010517;28;8862;-77
2023/01/30 06:11:25;;;;;;;;;19.00;19.00;;;;;1.92;52.81;99846.53;5042570;28;10257;-77
2023/01/30 06:13:55;;;;;;;;;23.00;21.00;;;;;1.99;53.15;99841.63;4994841;28;8886;-79
2023/01/30 06:16:23;;;;;;;;;24.75;21.75;;;;;2.03;52.70;99848.66;5042937;28;8916;-78
2023/01/30 06:18:52;;;;;;;;;19.00;18.25;;;;;2.08;52.45;99839.38;5027635;28;8881;-76
2023/01/30 06:21:21;;;;;;;;;21.25;16.00;;;;;2.22;51.95;99838.22;5065765;28;8855;-79
2023/01/30 06:23:50;;;;;;;;;27.75;24.75;;;;;2.63;51.81;99831.16;5087782;28;9775;-78
2023/01/30 06:26:19;;;;;;;;;33.00;21.00;;;;;2.46;51.05;99834.81;5087887;28;8847;-78
2023/01/30 06:28:48;;;;;;;;;27.25;23.50;;;;;2.62;50.17;99829.38;5036234;28;8881;-78
2023/01/30 06:31:19;;;;;;;;;30.50;28.00;;;;;2.42;49.92;99833.84;5087173;28;8882;-79
2023/01/30 06:33:48;;;;;;;;;24.75;22.00;;;;;2.38;50.91;99834.50;5063522;28;8861;-78
2023/01/30 06:36:17;;;;;;;;;29.75;27.75;;;;;2.46;50.39;99834.81;5047531;28;8856;-78
2023/01/30 06:38:45;;;;;;;;;20.60;18.80;;;;;2.36;49.30;99840.44;5103223;28;8873;-78
2023/01/30 06:41:14;;;;;;;;;25.80;24.60;;;;;2.40;50.54;99844.88;5106689;28;8856;-78
2023/01/30 06:43:43;;;;;;;;;32.00;29.25;;;;;2.81;49.71;99833.50;5089298;28;8837;-79
2023/01/30 06:46:12;;;;;;;;;33.50;24.50;;;;;2.66;49.83;99841.53;5055930;28;8933;-78
2023/01/30 06:48:42;;;;;;;;;30.75;26.25;;;;;2.79;49.68;99837.72;5107055;28;8941;-77
2023/01/30 06:51:11;;;;;;;;;23.50;21.50;;;;;2.49;49.23;99837.50;5072437;28;8877;-79
2023/01/30 06:53:40;;;;;;;;;30.00;27.25;;;;;2.47;50.02;99839.13;5105229;28;8849;-79
2023/01/30 06:56:09;;;;;;;;;31.00;30.50;;;;;2.53;50.76;99840.25;5088419;28;8837;-77
2023/01/30 06:58:37;;;;;;;;;28.50;27.00;;;;;2.84;49.20;99843.03;5071569;28;8938;-76
2023/01/30 07:01:06;;;;;;;;;26.25;24.25;;;;;2.77;49.82;99839.34;5061915;28;8854;-79
2023/01/30 07:03:35;;;;;;;;;39.25;35.25;;;;;2.88;49.91;99842.31;5095665;28;8848;-78
2023/01/30 07:06:05;;;;;;;;;27.25;19.50;;;;;3.12;49.20;99832.88;5106955;28;8880;-78
2023/01/30 07:08:34;;;;;;;;;22.50;21.25;;;;;3.13;48.83;99831.16;5098968;28;8860;-77
2023/01/30 07:11:04;;;;;;;;;28.75;24.00;;;;;2.99;48.63;99835.84;5107383;27;8859;-79
2023/01/30 07:13:33;;;;;;;;;26.25;22.00;;;;;2.58;48.83;99847.25;5096600;28;8914;-77
2023/01/30 07:16:02;;;;;;;;;30.25;26.25;;;;;2.88;49.50;99830.31;5070352;28;8840;-77
2023/01/30 07:18:30;;;;;;;;;29.00;25.00;;;;;3.11;48.28;99836.25;5087634;28;8886;-76
2023/01/30 07:20:59;;;;;;;;;34.00;24.00;;;;;2.87;48.99;99841.44;5104858;28;8897;-77
2023/01/30 07:23:29;;;;;;;;;30.50;27.50;;;;;2.82;48.59;99842.13;5104326;28;8961;-75
2023/01/30 07:25:58;;;;;;;;;29.00;28.25;;;;;3.24;48.77;99836.69;5105107;28;8851;-75
2023/01/30 07:28:27;;;;;;;;;33.50;28.00;;;;;2.96;47.53;99847.75;5088511;28;8950;-78
2023/01/30 07:30:59;;;;;;;;;30.00;25.00;;;;;3.45;47.63;99834.78;5105325;28;8882;-75
2023/01/30 07:33:28;;;;;;;;;33.75;29.25;;;;;3.97;47.83;99829.53;5087859;28;8918;-79
2023/01/30 07:35:57;;;;;;;;;25.75;22.75;;;;;4.33;47.02;99829.78;5054313;28;8859;-74
2023/01/30 07:38:26;;;;;;;;;23.40;21.60;;;;;3.90;45.78;99834.50;5089744;28;8838;-75
2023/01/30 07:40:57;;;;;;;;;27.20;22.80;;;;;3.64;45.56;99837.97;5104653;28;8840;-74
2023/01/30 07:43:26;;;;;;;;;35.75;30.50;;;;;3.52;46.11;99835.88;5083590;28;8858;-76
2023/01/30 07:45:55;;;;;;;;;27.50;20.50;;;;;3.41;46.78;99845.84;5128437;27;8945;-75
2023/01/30 07:48:23;;;;;;;;;38.25;34.50;;;;;3.73;46.61;99846.00;5121385;27;8972;-73
2023/01/30 07:50:56;;;;;;;;;27.50;25.25;;;;;4.43;46.94;99836.94;5128128;27;8834;-74
2023/01/30 07:53:25;;;;;;;;;27.60;25.80;;;;;4.90;46.11;99839.09;5109135;27;9633;-75
2023/01/30 07:55:55;;;;;;;;;28.25;24.75;;;;;5.22;45.55;99833.91;5127727;27;8856;-75
2023/01/30 07:58:24;;;;;;;;;30.50;26.75;;;;;5.44;42.80;99837.88;5128034;27;9597;-73
2023/01/30 08:00:55;;;;;;;;;38.50;31.25;;;;;4.96;43.59;99840.97;5127794;27;8825;-74
2023/01/30 08:03:24;;;;;;;;;37.25;32.25;;;;;5.50;44.40;99835.47;5148105;27;8850;-75
2023/01/30 08:05:54;;;;;;;;;28.75;27.00;;;;;5.84;43.96;99836.25;5129030;27;8870;-75
2023/01/30 08:08:22;;;;;;;;;38.50;29.50;;;;;6.23;44.35;99832.84;5148386;27;8854;-73
2023/01/30 08:10:51;;;;;;;;;29.67;27.00;;;;;6.49;43.03;99824.78;5148820;27;9676;-74
2023/01/30 08:13:21;;;;;;;;;29.00;21.75;;;;;6.73;42.68;99817.47;5149102;27;8839;-73
2023/01/30 08:15:50;;;;;;;;;34.50;28.75;;;;;6.93;42.02;99815.25;5138552;27;8817;-75
2023/01/30 08:18:19;;;;;;;;;26.80;25.40;;;;;6.48;41.57;99813.50;5128343;27;9637;-75
2023/01/30 08:20:48;;;;;;;;;28.80;25.00;;;;;6.47;40.25;99818.69;5110709;27;8837;-74
2023/01/30 08:23:16;;;;;;;;;32.25;29.50;;;;;6.22;39.84;99810.41;5113590;27;8860;-75
2023/01/30 08:25:45;;;;;;;;;33.75;31.00;;;;;5.58;41.15;99809.78;5113047;27;8842;-76
2023/01/30 08:28:14;;;;;;;;;32.25;29.25;;;;;5.33;42.12;99795.38;5131566;27;8825;-76
2023/01/30 08:30:44;;;;;;;;;16.00;14.00;;;;;5.35;42.22;99798.88;5121367;27;8931;-74
2023/01/30 08:33:13;;;;;;;;;29.75;29.75;;;;;5.15;41.92;99796.66;5152050;27;8891;-75
2023/01/30 08:35:42;;;;;;;;;27.20;24.20;;;;;4.78;42.62;99800.91;5151654;27;8836;-74
2023/01/30 08:38:10;;;;;;;;;30.40;27.20;;;;;4.28;43.71;99800.34;5133196;27;9623;-74
2023/01/30 08:40:39;;;;;;;;;25.00;20.60;;;;;4.59;43.89;99796.91;5133392;27;8919;-76
2023/01/30 08:43:09;;;;;;;;;22.00;21.60;;;;;4.26;44.08;99804.59;5151904;27;8851;-75
2023/01/30 08:45:38;;;;;;;;;27.60;24.60;;;;;4.65;45.25;99791.03;5151530;27;8858;-76
2023/01/30 08:48:08;;;;;;;;;26.60;21.60;;;;;5.40;44.86;99794.69;5115978;27;8828;-73
2023/01/30 08:50:37;;;;;;;;;22.40;16.40;;;;;4.84;43.88;99802.78;5131274;27;8841;-75
2023/01/30 08:53:07;;;;;;;;;24.40;20.00;;;;;4.27;45.14;99790.84;5130535;27;8865;-75
2023/01/30 08:55:36;;;;;;;;;26.00;22.80;;;;;4.92;44.53;99793.50;5130665;27;8849;-75
2023/01/30 08:58:05;;;;;;;;;23.40;21.80;;;;;4.21;44.17;99790.69;5139231;27;8832;-76
2023/01/30 09:00:34;;;;;;;;;24.00;23.20;;;;;4.55;45.75;99781.31;5132703;27;8827;-75
2023/01/30 09:03:02;;;;;;;;;32.25;29.00;;;;;5.19;44.94;99770.06;5151325;27;8851;-73
2023/01/30 09:05:33;;;;;;;;;27.80;24.20;;;;;5.30;43.92;99761.72;5132912;27;8847;-74
2023/01/30 09:08:01;;;;;;;;;24.60;21.40;;;;;5.68;42.88;99761.72;5076982;27;9599;-75
2023/01/30 09:10:31;;;;;;;;;38.60;30.60;;;;;4.57;43.97;99764.13;5095127;27;8841;-77
2023/01/30 09:12:59;;;;;;;;;19.60;18.80;;;;;4.93;43.44;99765.94;5094811;27;8896;-76
2023/01/30 09:15:29;;;;;;;;;20.40;19.60;;;;;5.60;44.67;99762.41;5128985;27;8852;-78
2023/01/30 09:17:57;;;;;;;;;19.60;19.60;;;;;5.76;43.56;99767.94;5112339;27;8842;-77
2023/01/30 09:20:26;;;;;;;;;23.20;19.80;;;;;5.99;43.13;99759.00;5112109;27;8825;-76
2023/01/30 09:22:56;;;;;;;;;19.40;19.20;;;;;6.32;43.21;99742.41;5130299;27;8857;-76
2023/01/30 09:25:25;;;;;;;;;28.80;23.40;;;;;6.24;42.00;99737.06;5077668;27;8826;-75
2023/01/30 09:27:54;;;;;;;;;26.00;22.00;;;;;6.70;42.03;99724.13;5130058;27;8841;-74
2023/01/30 09:30:23;;;;;;;;;29.80;23.80;;;;;5.10;43.13;99728.47;5130325;27;8950;-77
2023/01/30 09:32:52;;;;;;;;;23.00;22.00;;;;;5.57;42.76;99726.13;5117598;27;8857;-75
2023/01/30 09:35:20;;;;;;;;;24.00;23.60;;;;;5.70;42.45;99721.22;5086588;28;9610;-74
2023/01/30 09:37:50;;;;;;;;;24.80;23.20;;;;;4.41;43.99;99732.75;5069302;28;8853;-75
2023/01/30 09:40:23;;;;;;;;;25.80;23.80;;;;;4.28;44.71;99736.69;5052853;28;8853;-75
2023/01/30 09:43:09;;;;;;;;;33.00;26.80;;;;;4.55;45.63;99722.78;5069597;28;9362;-77
2023/01/30 09:45:49;;;;;;;;;23.60;18.80;;;;;4.34;44.75;99729.97;5074854;28;8826;-73
2023/01/30 09:48:22;;;;;;;;;24.50;21.75;;;;;4.40;44.91;99728.41;5036666;28;8903;-74
2023/01/30 09:51:22;;;;;;;;;34.25;31.75;;;;;4.60;45.20;99715.16;5085506;28;8841;-76
2023/01/30 09:54:08;;;;;;;;;29.25;26.50;;;;;5.06;45.56;99703.38;5025529;28;9666;-76
2023/01/30 09:56:38;;;;;;;;;26.75;25.50;;;;;5.40;44.01;99704.19;5008856;28;8895;-76
2023/01/30 09:59:18;;;;;;;;;34.00;33.00;;;;;5.17;44.89;99698.50;5025650;28;8841;-77
2023/01/30 10:01:56;;;;;;;;;32.25;29.25;;;;;5.54;43.19;99697.63;5005580;28;8835;-74
2023/01/30 10:04:31;;;;;;;;;30.00;28.25;;;;;5.34;43.68;99697.16;4956810;28;8903;-76
2023/01/30 10:07:15;;;;;;;;;28.00;25.40;;;;;5.02;43.86;99691.25;5006044;28;8908;-75
2023/01/30 10:09:54;;;;;;;;;36.75;34.75;;;;;4.70;44.85;99680.97;5064027;28;8853;-75
2023/01/30 10:12:36;;;;;;;;;31.00;27.00;;;;;4.64;44.68;99679.13;5065089;28;8947;-74
2023/01/30 10:15:20;;;;;;;;;30.50;28.75;;;;;5.05;43.50;99665.47;5064964;28;8853;-76
2023/01/30 10:18:23;;;;;;;;;27.25;25.25;;;;;5.37;44.82;99666.22;5032069;28;8821;-78
2023/01/30 10:21:04;;;;;;;;;37.25;30.00;;;;;4.51;45.24;99671.88;5005638;28;8883;-75
2023/01/30 10:23:49;;;;;;;;;28.75;28.75;;;;;4.10;44.86;99676.81;5005408;28;8852;-76
2023/01/30 10:26:22;;;;;;;;;30.75;30.00;;;;;3.83;45.94;99670.06;4986076;28;8941;-75
2023/01/30 10:28:59;;;;;;;;;33.75;25.00;;;;;4.05;45.59;99655.19;4969887;28;8854;-75
2023/01/30 10:31:42;;;;;;;;;25.20;22.80;;;;;4.07;45.57;99654.41;5022439;28;8872;-74
2023/01/30 10:34:15;;;;;;;;;26.00;23.00;;;;;4.00;45.76;99654.19;5028083;28;9043;-75
2023/01/30 10:36:52;;;;;;;;;29.75;24.75;;;;;4.48;44.56;99646.00;5028511;28;8841;-75
2023/01/30 10:39:28;;;;;;;;;33.75;28.00;;;;;4.58;44.41;99642.81;5062951;28;8849;-76
2023/01/30 10:42:06;;;;;;;;;25.75;19.50;;;;;4.45;44.41;99633.88;5048613;28;8829;-74
2023/01/30 10:44:38;;;;;;;;;31.25;27.00;;;;;3.96;45.18;99629.13;5064685;28;8853;-76
2023/01/30 10:47:29;;;;;;;;;29.75;27.25;;;;;3.66;45.91;99627.44;5065474;28;9650;-76
2023/01/30 10:50:17;;;;;;;;;27.50;26.25;;;;;3.56;46.84;99622.88;5048483;28;8910;-76
2023/01/30 10:52:57;;;;;;;;;22.20;21.00;;;;;3.23;47.20;99618.44;5064818;28;8946;-74
2023/01/30 10:58:40;;;;;;;;;27.50;24.75;;;;;3.54;46.97;99593.59;5111269;27;8837;-75
2023/01/30 11:01:18;;;;;;;;;28.25;25.25;;;;;3.44;47.19;99595.91;5108512;27;8957;-76
2023/01/30 11:03:53;;;;;;;;;23.60;22.80;;;;;3.47;46.96;99598.56;5091333;27;8865;-77
2023/01/30 11:06:24;;;;;;;;;30.80;22.60;;;;;3.35;46.52;99594.78;5125094;27;8895;-77
2023/01/30 11:08:54;;;;;;;;;20.60;20.40;;;;;3.37;45.86;99593.09;5108269;27;8976;-77
2023/01/30 11:11:26;;;;;;;;;22.00;20.75;;;;;3.36;47.10;99589.63;5124946;27;8865;-78
2023/01/30 11:14:02;;;;;;;;;27.50;25.00;;;;;3.68;47.17;99585.38;5074980;27;8838;-75
2023/01/30 11:16:42;;;;;;;;;23.00;21.75;;;;;4.05;46.91;99573.50;5084366;28;8846;-77
2023/01/30 11:19:11;;;;;;;;;24.20;21.80;;;;;3.80;46.49;99559.09;5084098;28;8820;-76
2023/01/30 11:21:51;;;;;;;;;28.25;28.00;;;;;4.01;46.22;99552.75;5067692;28;8843;-77
2023/01/30 11:24:23;;;;;;;;;27.75;22.50;;;;;4.74;46.13;99537.28;5067637;28;8973;-77
2023/01/30 11:26:52;;;;;;;;;27.00;25.25;;;;;4.78;44.53;99536.50;5084657;28;8839;-77
2023/01/30 11:29:30;;;;;;;;;20.40;20.40;;;;;4.52;44.62;99522.97;5084830;28;9085;-74
2023/01/30 11:32:05;;;;;;;;;28.40;25.60;;;;;5.18;44.44;99504.66;5084734;28;8851;-76
2023/01/30 11:34:34;;;;;;;;;31.00;26.00;;;;;5.32;42.77;99492.00;5051245;28;8851;-78
2023/01/30 11:37:14;;;;;;;;;27.00;24.40;;;;;5.34;42.88;99482.56;5097020;28;8876;-74
2023/01/30 11:39:51;;;;;;;;;27.75;26.00;;;;;5.83;42.45;99478.28;5088661;28;8853;-77
2023/01/30 11:42:25;;;;;;;;;39.00;35.50;;;;;6.14;42.23;99475.38;5088201;28;8840;-75
2023/01/30 11:44:58;;;;;;;;;24.50;18.75;;;;;6.50;42.73;99467.28;5105266;28;8849;-75
2023/01/30 11:47:52;;;;;;;;;25.40;21.20;;;;;6.96;42.71;99469.66;5126421;27;8885;-77
2023/01/30 11:50:31;;;;;;;;;24.40;23.20;;;;;7.13;42.51;99468.13;5130903;27;8869;-76
2023/01/30 11:53:21;;;;;;;;;23.40;21.40;;;;;7.57;40.96;99462.56;5130497;27;8851;-76
2023/01/30 11:55:50;;;;;;;;;29.80;24.80;;;;;7.83;41.91;99461.09;5131857;27;8843;-77
2023/01/30 11:58:33;;;;;;;;;25.40;23.20;;;;;8.03;40.11;99454.31;5134425;27;8843;-77
2023/01/30 12:01:04;;;;;;;;;27.60;24.80;;;;;8.28;40.75;99446.72;5145815;27;8837;-78
2023/01/30 12:03:47;;;;;;;;;30.00;28.50;;;;;8.25;39.16;99444.97;5132176;27;8892;-76